Погода Берекена неделю

Алматинская область, Казахстан

25 - 31 июля
  • 25июля
    Сегодня
    +22°
    +37°
    Небольшая облачность
    ВремяПогодаТемператураВлажностьДавлениеВетер, м/сВероятность осадков
    02:00Ясно и безоблачно+23°C59 %693 мм0.7 м/с2 %
    05:00Ясно и безоблачно+21°C69 %694 мм0.8 м/с2 %
    08:00Ясно и безоблачно+27°C46 %695 мм1.2 м/с2 %
    11:00Практически безоблачно+34°C34 %695 мм2.0 м/с2 %
    14:00Небольшая облачность+37°C28 %695 мм2.2 м/с11 %
    17:00Облачно с прояснениями+34°C32 %695 мм0.6 м/с12 %
    20:00Ясно и безоблачно+28°C48 %695 мм1.6 м/с4 %
    23:00Небольшая облачность+25°C54 %695 мм1.3 м/с2 %
  • 26июля
    Пятница
    +24°
    +39°
    Ясно и безоблачно
    ВремяПогодаТемператураВлажностьДавлениеВетер, м/сВероятность осадков
    02:00Ясно и безоблачно+24°C56 %694 мм1.8 м/с2 %
    05:00Ясно и безоблачно+23°C61 %694 мм1.3 м/с2 %
    08:00Ясно и безоблачно+30°C43 %696 мм0.4 м/с2 %
    11:00Ясно и безоблачно+36°C31 %697 мм1.3 м/с2 %
    14:00Ясно и безоблачно+38°C26 %697 мм0.9 м/с2 %
    17:00Практически безоблачно+37°C28 %697 мм0.9 м/с2 %
    20:00Ясно и безоблачно+31°C40 %697 мм1.3 м/с2 %
    23:00Ясно и безоблачно+28°C50 %696 мм1.6 м/с2 %
  • 27июля
    Суббота
    +22°
    +40°
    Ясно и безоблачно
    ВремяПогодаТемператураВлажностьДавлениеВетер, м/сВероятность осадков
    02:00Ясно и безоблачно+26°C49 %696 мм1.6 м/с2 %
    05:00Ясно и безоблачно+25°C51 %697 мм0.6 м/с2 %
    08:00Ясно и безоблачно+30°C38 %698 мм1.0 м/с2 %
    11:00Ясно и безоблачно+37°C24 %698 мм1.4 м/с2 %
    14:00Ясно и безоблачно+39°C18 %698 мм1.7 м/с2 %
    17:00Ясно и безоблачно+38°C26 %698 мм0.6 м/с2 %
    20:00Ясно и безоблачно+34°C27 %698 мм1.5 м/с2 %
    23:00Ясно и безоблачно+29°C36 %697 мм0.5 м/с2 %
  • 28июля
    Воскресенье
    +23°
    +41°
    Ясно и безоблачно
    ВремяПогодаТемператураВлажностьДавлениеВетер, м/сВероятность осадков
    02:00Ясно и безоблачно+26°C46 %696 мм1.6 м/с2 %
    05:00Ясно и безоблачно+23°C51 %696 мм1.2 м/с2 %
    08:00Ясно и безоблачно+30°C39 %698 мм1.9 м/с2 %
    11:00Ясно и безоблачно+37°C25 %698 мм2.5 м/с2 %
    14:00Ясно и безоблачно+40°C22 %698 мм2.2 м/с2 %
    17:00Ясно и безоблачно+38°C26 %698 мм1.2 м/с2 %
    20:00Ясно и безоблачно+32°C43 %698 мм1.6 м/с2 %
    23:00Ясно и безоблачно+28°C47 %697 мм1.5 м/с2 %
Мы используем cookies
Соглашаюсь